Etusivu
METAR-TAF:

METAR-TAF

Lentoasemat :

Tegelin lentoasema

Berlin, Saksa

Leveyspiiri: 52-34N, Pituuspiiri: 013-19E, korkeus merenpinnasta: 37 m

Tämänhetkinen sää

Tämä raportti tehtiin 30 minuuttia sitten, kello 12.50 UTC
Tuuli 9 kn etelästä
Lämpötila 7°C
Kosteus 76%
Ilmanpaine 1005 hPa
Näkyvyys 10 km tai enemmän
Muutamia pilviä 2000 ft:n korkeudessa

METAR: EDDT 121250Z 17009KT 9999 FEW020 07/03 Q1005 NOSIG

Aika: 14:20 (13:20 UTC)

Sääennuste

Tämä raportti tehtiin 2 tuntia ja 20 minuuttia sitten, kello 11.00 UTC
Ennuste voimassa 12. päivästä klo 12 UTC - 13. päivään klo 12 UTC
Tuuli 10 kn etelästä/lounaasta
Näkyvyys 10 km tai enemmän
ei pilviä alle 1500 m:ssä eikä cumulonimbus-pilviä
Tulossa
12. päivästä klo 14 UTC - 12. päivään klo 16 UTC
Tuuli 5 kn etelästä

TAF: EDDT 121100Z 1212/1312 20010KT CAVOK BECMG 1214/1216 17005KT

Säähavainnot ja -ennusteet yli 4000 lentoasemalta (METAR- ja TAF-raportit).

Käytössä olevat sääasemat on merkitty karttaan keltaisilla ja punaisilla pisteillä.

Aseta hiiri pisteen päälle nähdäksesi sääaseman nimen.

Klikkaa sitten nähdäksesi säähavainnot ja -ennusteet.

Kartan vaihtaminen: klikkaa mustalla rastilla varustettuja vihreitä pisteitä, niin voit zoomata sisään; viivalla varustettua vihreää pistettä, niin voit zoomata ulos tai vihreitä nuolia, niin pääset viereisille kartoille.


METAR-TAF: